sensor_id;sensor_type;location;lat;lon;timestamp;P1;durP1;ratioP1;P2;durP2;ratioP2
16199;SDS011;8207;52.494;4.654;2023-08-06T00:45:24;10.10;;;7.65;;
16199;SDS011;8207;52.494;4.654;2023-08-06T00:47:50;12.30;;;7.35;;
16199;SDS011;8207;52.494;4.654;2023-08-06T00:50:15;11.02;;;7.55;;
16199;SDS011;8207;52.494;4.654;2023-08-06T00:52:41;9.18;;;5.95;;
16199;SDS011;8207;52.494;4.654;2023-08-06T00:55:06;12.48;;;7.47;;
16199;SDS011;8207;52.494;4.654;2023-08-06T00:57:32;12.85;;;8.07;;
16199;SDS011;8207;52.494;4.654;2023-08-06T00:59:57;10.93;;;7.00;;
16199;SDS011;8207;52.494;4.654;2023-08-06T01:02:23;13.40;;;8.50;;
16199;SDS011;8207;52.494;4.654;2023-08-06T01:04:48;13.80;;;9.55;;
16199;SDS011;8207;52.494;4.654;2023-08-06T01:07:19;13.23;;;9.20;;
16199;SDS011;8207;52.494;4.654;2023-08-06T01:17:22;13.57;;;9.98;;
16199;SDS011;8207;52.494;4.654;2023-08-06T01:19:48;12.85;;;8.88;;
16199;SDS011;8207;52.494;4.654;2023-08-06T01:22:13;10.90;;;7.77;;
16199;SDS011;8207;52.494;4.654;2023-08-06T01:24:39;11.75;;;8.48;;
16199;SDS011;8207;52.494;4.654;2023-08-06T01:27:08;12.13;;;8.80;;
16199;SDS011;8207;52.494;4.654;2023-08-06T01:29:42;12.52;;;9.07;;
16199;SDS011;8207;52.494;4.654;2023-08-06T01:32:08;14.18;;;10.35;;
16199;SDS011;8207;52.494;4.654;2023-08-06T01:34:34;12.13;;;9.57;;
16199;SDS011;8207;52.494;4.654;2023-08-06T01:37:00;12.90;;;9.30;;
16199;SDS011;8207;52.494;4.654;2023-08-06T01:39:25;17.25;;;12.27;;
16199;SDS011;8207;52.494;4.654;2023-08-06T01:41:51;12.70;;;9.68;;
16199;SDS011;8207;52.494;4.654;2023-08-06T01:44:16;14.18;;;9.77;;
16199;SDS011;8207;52.494;4.654;2023-08-06T01:46:41;14.35;;;10.52;;
16199;SDS011;8207;52.494;4.654;2023-08-06T01:49:07;14.38;;;10.57;;
16199;SDS011;8207;52.494;4.654;2023-08-06T01:51:32;16.33;;;10.82;;
16199;SDS011;8207;52.494;4.654;2023-08-06T01:53:57;15.05;;;10.13;;
16199;SDS011;8207;52.494;4.654;2023-08-06T01:56:22;13.63;;;9.85;;
16199;SDS011;8207;52.494;4.654;2023-08-06T01:58:48;12.20;;;9.15;;
16199;SDS011;8207;52.494;4.654;2023-08-06T02:01:15;14.02;;;10.23;;
16199;SDS011;8207;52.494;4.654;2023-08-06T02:03:41;13.63;;;10.02;;
16199;SDS011;8207;52.494;4.654;2023-08-06T02:06:06;14.02;;;9.98;;
16199;SDS011;8207;52.494;4.654;2023-08-06T02:08:31;12.70;;;9.52;;
16199;SDS011;8207;52.494;4.654;2023-08-06T02:10:56;12.53;;;9.40;;
16199;SDS011;8207;52.494;4.654;2023-08-06T02:13:23;12.85;;;9.05;;
16199;SDS011;8207;52.494;4.654;2023-08-06T02:15:48;12.80;;;8.65;;
16199;SDS011;8207;52.494;4.654;2023-08-06T02:18:13;13.38;;;9.00;;
16199;SDS011;8207;52.494;4.654;2023-08-06T02:20:40;12.38;;;8.30;;
16199;SDS011;8207;52.494;4.654;2023-08-06T02:23:05;12.65;;;8.90;;
16199;SDS011;8207;52.494;4.654;2023-08-06T02:25:30;11.38;;;8.00;;
16199;SDS011;8207;52.494;4.654;2023-08-06T02:27:55;8.88;;;6.63;;
16199;SDS011;8207;52.494;4.654;2023-08-06T02:30:20;7.87;;;5.50;;
16199;SDS011;8207;52.494;4.654;2023-08-06T02:32:46;6.75;;;4.65;;
16199;SDS011;8207;52.494;4.654;2023-08-06T02:35:11;7.78;;;4.53;;
16199;SDS011;8207;52.494;4.654;2023-08-06T02:37:36;5.18;;;3.60;;
16199;SDS011;8207;52.494;4.654;2023-08-06T02:40:01;5.30;;;3.43;;
16199;SDS011;8207;52.494;4.654;2023-08-06T02:42:27;5.97;;;3.10;;
16199;SDS011;8207;52.494;4.654;2023-08-06T02:44:52;4.88;;;2.63;;
16199;SDS011;8207;52.494;4.654;2023-08-06T02:47:20;4.25;;;2.50;;
16199;SDS011;8207;52.494;4.654;2023-08-06T02:49:45;3.97;;;2.40;;
16199;SDS011;8207;52.494;4.654;2023-08-06T02:52:10;3.92;;;2.20;;
16199;SDS011;8207;52.494;4.654;2023-08-06T02:54:35;3.58;;;2.10;;
16199;SDS011;8207;52.494;4.654;2023-08-06T02:57:00;4.37;;;2.27;;
16199;SDS011;8207;52.494;4.654;2023-08-06T02:59:26;3.97;;;2.25;;
16199;SDS011;8207;52.494;4.654;2023-08-06T03:01:51;5.03;;;2.30;;
16199;SDS011;8207;52.494;4.654;2023-08-06T03:04:16;4.13;;;2.15;;
16199;SDS011;8207;52.494;4.654;2023-08-06T03:06:43;3.35;;;1.90;;
16199;SDS011;8207;52.494;4.654;2023-08-06T03:09:08;5.15;;;2.00;;
16199;SDS011;8207;52.494;4.654;2023-08-06T03:11:33;4.70;;;2.27;;
16199;SDS011;8207;52.494;4.654;2023-08-06T03:13:58;2.90;;;1.98;;
16199;SDS011;8207;52.494;4.654;2023-08-06T03:16:24;3.85;;;2.20;;
16199;SDS011;8207;52.494;4.654;2023-08-06T03:18:49;3.20;;;1.70;;
16199;SDS011;8207;52.494;4.654;2023-08-06T03:21:14;2.90;;;1.85;;
16199;SDS011;8207;52.494;4.654;2023-08-06T03:23:39;3.65;;;1.80;;
16199;SDS011;8207;52.494;4.654;2023-08-06T03:26:04;3.47;;;1.87;;
16199;SDS011;8207;52.494;4.654;2023-08-06T03:28:30;2.95;;;1.75;;
16199;SDS011;8207;52.494;4.654;2023-08-06T03:31:01;3.38;;;1.88;;
16199;SDS011;8207;52.494;4.654;2023-08-06T03:33:27;5.18;;;1.90;;
16199;SDS011;8207;52.494;4.654;2023-08-06T03:35:52;4.30;;;1.75;;
16199;SDS011;8207;52.494;4.654;2023-08-06T03:38:17;3.40;;;1.83;;
16199;SDS011;8207;52.494;4.654;2023-08-06T03:40:43;3.87;;;1.80;;
16199;SDS011;8207;52.494;4.654;2023-08-06T03:43:08;3.42;;;1.67;;
16199;SDS011;8207;52.494;4.654;2023-08-06T03:45:33;2.72;;;1.70;;
16199;SDS011;8207;52.494;4.654;2023-08-06T03:47:58;3.95;;;1.70;;
16199;SDS011;8207;52.494;4.654;2023-08-06T03:50:24;3.33;;;2.15;;
16199;SDS011;8207;52.494;4.654;2023-08-06T03:52:49;6.00;;;2.13;;
16199;SDS011;8207;52.494;4.654;2023-08-06T03:55:14;3.50;;;2.58;;
16199;SDS011;8207;52.494;4.654;2023-08-06T03:57:39;5.40;;;3.10;;
16199;SDS011;8207;52.494;4.654;2023-08-06T04:00:05;4.20;;;2.92;;
16199;SDS011;8207;52.494;4.654;2023-08-06T04:02:30;6.75;;;4.03;;
16199;SDS011;8207;52.494;4.654;2023-08-06T04:04:56;5.38;;;4.20;;
16199;SDS011;8207;52.494;4.654;2023-08-06T04:07:21;4.85;;;3.45;;
16199;SDS011;8207;52.494;4.654;2023-08-06T04:10:20;7.10;;;5.37;;
16199;SDS011;8207;52.494;4.654;2023-08-06T04:12:38;7.70;;;5.43;;
16199;SDS011;8207;52.494;4.654;2023-08-06T04:15:04;6.60;;;5.13;;
16199;SDS011;8207;52.494;4.654;2023-08-06T04:17:30;7.70;;;5.65;;
16199;SDS011;8207;52.494;4.654;2023-08-06T04:19:55;7.35;;;5.10;;
16199;SDS011;8207;52.494;4.654;2023-08-06T04:22:23;6.78;;;4.97;;
16199;SDS011;8207;52.494;4.654;2023-08-06T04:24:48;5.45;;;4.20;;
16199;SDS011;8207;52.494;4.654;2023-08-06T04:27:14;5.55;;;4.10;;
16199;SDS011;8207;52.494;4.654;2023-08-06T04:29:39;4.85;;;3.30;;
16199;SDS011;8207;52.494;4.654;2023-08-06T04:32:05;4.03;;;2.95;;
16199;SDS011;8207;52.494;4.654;2023-08-06T04:34:31;3.30;;;2.78;;
16199;SDS011;8207;52.494;4.654;2023-08-06T04:36:56;3.55;;;2.40;;
16199;SDS011;8207;52.494;4.654;2023-08-06T04:39:21;3.15;;;2.50;;
16199;SDS011;8207;52.494;4.654;2023-08-06T04:41:46;3.60;;;2.60;;
16199;SDS011;8207;52.494;4.654;2023-08-06T04:44:12;4.05;;;2.58;;
16199;SDS011;8207;52.494;4.654;2023-08-06T04:46:37;3.90;;;2.90;;
16199;SDS011;8207;52.494;4.654;2023-08-06T04:49:02;4.82;;;3.13;;
16199;SDS011;8207;52.494;4.654;2023-08-06T04:51:27;4.57;;;3.50;;
16199;SDS011;8207;52.494;4.654;2023-08-06T04:53:52;4.60;;;3.50;;
16199;SDS011;8207;52.494;4.654;2023-08-06T04:56:18;6.18;;;3.97;;
16199;SDS011;8207;52.494;4.654;2023-08-06T04:58:43;4.13;;;3.22;;
16199;SDS011;8207;52.494;4.654;2023-08-06T05:01:08;6.22;;;3.65;;
16199;SDS011;8207;52.494;4.654;2023-08-06T05:03:34;4.40;;;3.35;;
16199;SDS011;8207;52.494;4.654;2023-08-06T05:05:59;4.65;;;3.25;;
16199;SDS011;8207;52.494;4.654;2023-08-06T05:08:24;4.22;;;3.40;;
16199;SDS011;8207;52.494;4.654;2023-08-06T05:10:49;4.40;;;3.60;;
16199;SDS011;8207;52.494;4.654;2023-08-06T05:13:14;6.03;;;3.50;;
16199;SDS011;8207;52.494;4.654;2023-08-06T05:15:40;6.20;;;3.73;;
16199;SDS011;8207;52.494;4.654;2023-08-06T05:18:07;4.22;;;3.50;;
16199;SDS011;8207;52.494;4.654;2023-08-06T05:20:35;5.53;;;3.35;;
16199;SDS011;8207;52.494;4.654;2023-08-06T05:23:00;5.70;;;4.15;;
16199;SDS011;8207;52.494;4.654;2023-08-06T05:25:26;7.45;;;3.67;;
16199;SDS011;8207;52.494;4.654;2023-08-06T05:27:51;5.85;;;4.40;;
16199;SDS011;8207;52.494;4.654;2023-08-06T05:30:16;5.82;;;4.40;;
16199;SDS011;8207;52.494;4.654;2023-08-06T05:32:41;7.40;;;4.87;;
16199;SDS011;8207;52.494;4.654;2023-08-06T05:35:07;5.53;;;4.38;;
16199;SDS011;8207;52.494;4.654;2023-08-06T05:37:32;6.75;;;4.53;;
16199;SDS011;8207;52.494;4.654;2023-08-06T05:39:57;5.80;;;4.22;;
16199;SDS011;8207;52.494;4.654;2023-08-06T05:42:22;6.75;;;4.30;;
16199;SDS011;8207;52.494;4.654;2023-08-06T05:44:48;6.38;;;4.40;;
16199;SDS011;8207;52.494;4.654;2023-08-06T05:47:13;8.55;;;4.60;;
16199;SDS011;8207;52.494;4.654;2023-08-06T05:49:38;5.70;;;4.40;;
16199;SDS011;8207;52.494;4.654;2023-08-06T05:52:03;6.70;;;4.47;;
16199;SDS011;8207;52.494;4.654;2023-08-06T05:54:31;5.93;;;3.85;;
16199;SDS011;8207;52.494;4.654;2023-08-06T05:56:56;6.65;;;4.20;;
16199;SDS011;8207;52.494;4.654;2023-08-06T05:59:21;6.47;;;3.87;;
16199;SDS011;8207;52.494;4.654;2023-08-06T06:01:46;6.05;;;3.45;;
16199;SDS011;8207;52.494;4.654;2023-08-06T06:04:12;5.60;;;3.50;;
16199;SDS011;8207;52.494;4.654;2023-08-06T06:06:37;4.97;;;3.80;;
16199;SDS011;8207;52.494;4.654;2023-08-06T06:09:02;5.90;;;3.70;;
16199;SDS011;8207;52.494;4.654;2023-08-06T06:11:27;5.75;;;3.70;;
16199;SDS011;8207;52.494;4.654;2023-08-06T06:13:53;4.95;;;3.05;;
16199;SDS011;8207;52.494;4.654;2023-08-06T06:16:18;5.00;;;3.53;;
16199;SDS011;8207;52.494;4.654;2023-08-06T06:18:43;6.15;;;3.58;;
16199;SDS011;8207;52.494;4.654;2023-08-06T06:21:09;4.78;;;3.22;;
16199;SDS011;8207;52.494;4.654;2023-08-06T06:23:34;6.93;;;4.35;;
16199;SDS011;8207;52.494;4.654;2023-08-06T06:26:00;4.47;;;3.30;;
16199;SDS011;8207;52.494;4.654;2023-08-06T06:28:25;6.13;;;3.73;;
16199;SDS011;8207;52.494;4.654;2023-08-06T06:30:50;6.60;;;4.03;;
16199;SDS011;8207;52.494;4.654;2023-08-06T06:33:16;5.32;;;3.70;;
16199;SDS011;8207;52.494;4.654;2023-08-06T06:35:41;6.88;;;4.05;;
16199;SDS011;8207;52.494;4.654;2023-08-06T06:38:06;4.40;;;3.20;;
16199;SDS011;8207;52.494;4.654;2023-08-06T06:40:31;5.43;;;3.10;;
16199;SDS011;8207;52.494;4.654;2023-08-06T06:42:58;5.60;;;3.97;;
16199;SDS011;8207;52.494;4.654;2023-08-06T06:45:23;7.72;;;4.05;;
16199;SDS011;8207;52.494;4.654;2023-08-06T06:47:48;5.82;;;3.85;;
16199;SDS011;8207;52.494;4.654;2023-08-06T06:50:13;8.98;;;4.18;;
16199;SDS011;8207;52.494;4.654;2023-08-06T06:52:38;6.15;;;3.38;;
16199;SDS011;8207;52.494;4.654;2023-08-06T06:55:04;5.35;;;3.70;;
16199;SDS011;8207;52.494;4.654;2023-08-06T06:57:29;5.10;;;3.80;;
16199;SDS011;8207;52.494;4.654;2023-08-06T06:59:54;5.93;;;3.80;;
16199;SDS011;8207;52.494;4.654;2023-08-06T07:02:19;6.57;;;3.23;;
16199;SDS011;8207;52.494;4.654;2023-08-06T07:04:45;4.63;;;2.95;;
16199;SDS011;8207;52.494;4.654;2023-08-06T07:07:10;5.88;;;3.70;;
16199;SDS011;8207;52.494;4.654;2023-08-06T07:09:35;4.15;;;2.65;;
16199;SDS011;8207;52.494;4.654;2023-08-06T07:12:01;4.90;;;3.38;;
16199;SDS011;8207;52.494;4.654;2023-08-06T07:14:26;5.38;;;3.50;;
16199;SDS011;8207;52.494;4.654;2023-08-06T07:16:52;8.77;;;3.72;;
16199;SDS011;8207;52.494;4.654;2023-08-06T07:19:17;6.77;;;3.90;;
16199;SDS011;8207;52.494;4.654;2023-08-06T07:21:43;9.48;;;3.30;;
16199;SDS011;8207;52.494;4.654;2023-08-06T07:24:14;7.43;;;3.10;;
16199;SDS011;8207;52.494;4.654;2023-08-06T07:26:39;4.50;;;2.58;;
16199;SDS011;8207;52.494;4.654;2023-08-06T07:29:05;6.38;;;3.05;;
16199;SDS011;8207;52.494;4.654;2023-08-06T07:31:30;9.02;;;3.40;;
16199;SDS011;8207;52.494;4.654;2023-08-06T07:33:55;5.72;;;3.03;;
16199;SDS011;8207;52.494;4.654;2023-08-06T07:36:21;5.25;;;2.80;;
16199;SDS011;8207;52.494;4.654;2023-08-06T07:38:46;5.82;;;3.00;;
16199;SDS011;8207;52.494;4.654;2023-08-06T07:50:16;5.88;;;2.30;;
16199;SDS011;8207;52.494;4.654;2023-08-06T07:52:41;6.53;;;2.45;;
16199;SDS011;8207;52.494;4.654;2023-08-06T07:55:06;7.30;;;2.43;;
16199;SDS011;8207;52.494;4.654;2023-08-06T07:57:32;6.03;;;2.30;;
16199;SDS011;8207;52.494;4.654;2023-08-06T07:59:58;4.55;;;2.13;;
16199;SDS011;8207;52.494;4.654;2023-08-06T08:02:24;4.90;;;2.22;;
16199;SDS011;8207;52.494;4.654;2023-08-06T08:04:49;4.47;;;2.10;;
16199;SDS011;8207;52.494;4.654;2023-08-06T08:07:14;5.05;;;2.20;;
16199;SDS011;8207;52.494;4.654;2023-08-06T08:09:39;4.47;;;2.30;;
16199;SDS011;8207;52.494;4.654;2023-08-06T08:12:05;5.78;;;2.17;;
16199;SDS011;8207;52.494;4.654;2023-08-06T08:14:30;5.80;;;2.00;;
16199;SDS011;8207;52.494;4.654;2023-08-06T08:17:04;6.57;;;1.88;;
16199;SDS011;8207;52.494;4.654;2023-08-06T08:19:30;2.80;;;1.60;;
16199;SDS011;8207;52.494;4.654;2023-08-06T08:21:55;5.78;;;1.80;;
16199;SDS011;8207;52.494;4.654;2023-08-06T08:24:21;6.20;;;1.45;;
16199;SDS011;8207;52.494;4.654;2023-08-06T08:26:49;3.42;;;1.10;;
16199;SDS011;8207;52.494;4.654;2023-08-06T08:29:14;3.80;;;1.08;;
16199;SDS011;8207;52.494;4.654;2023-08-06T08:31:39;3.92;;;0.95;;
16199;SDS011;8207;52.494;4.654;2023-08-06T08:34:05;4.20;;;1.00;;
16199;SDS011;8207;52.494;4.654;2023-08-06T08:36:30;2.97;;;1.25;;
16199;SDS011;8207;52.494;4.654;2023-08-06T08:38:56;2.50;;;1.05;;
16199;SDS011;8207;52.494;4.654;2023-08-06T08:41:21;2.58;;;0.65;;
16199;SDS011;8207;52.494;4.654;2023-08-06T08:43:47;3.00;;;0.85;;
16199;SDS011;8207;52.494;4.654;2023-08-06T08:46:13;4.93;;;0.80;;
16199;SDS011;8207;52.494;4.654;2023-08-06T08:48:38;5.70;;;0.90;;
16199;SDS011;8207;52.494;4.654;2023-08-06T08:51:04;5.88;;;1.27;;
16199;SDS011;8207;52.494;4.654;2023-08-06T08:53:31;4.20;;;0.88;;
16199;SDS011;8207;52.494;4.654;2023-08-06T08:55:56;3.50;;;0.85;;
16199;SDS011;8207;52.494;4.654;2023-08-06T08:58:22;5.63;;;1.38;;
16199;SDS011;8207;52.494;4.654;2023-08-06T09:00:47;4.47;;;1.23;;
16199;SDS011;8207;52.494;4.654;2023-08-06T09:03:15;2.97;;;1.20;;
16199;SDS011;8207;52.494;4.654;2023-08-06T09:05:43;2.63;;;0.82;;
16199;SDS011;8207;52.494;4.654;2023-08-06T09:08:09;3.40;;;0.93;;
16199;SDS011;8207;52.494;4.654;2023-08-06T09:10:36;5.93;;;1.10;;
16199;SDS011;8207;52.494;4.654;2023-08-06T09:13:02;4.45;;;1.10;;
16199;SDS011;8207;52.494;4.654;2023-08-06T09:15:28;4.60;;;1.00;;
16199;SDS011;8207;52.494;4.654;2023-08-06T09:17:54;3.95;;;0.93;;
16199;SDS011;8207;52.494;4.654;2023-08-06T09:20:20;5.43;;;1.10;;
16199;SDS011;8207;52.494;4.654;2023-08-06T09:22:45;3.17;;;1.00;;
16199;SDS011;8207;52.494;4.654;2023-08-06T09:25:13;3.70;;;1.10;;
16199;SDS011;8207;52.494;4.654;2023-08-06T09:27:46;2.53;;;0.80;;
16199;SDS011;8207;52.494;4.654;2023-08-06T09:30:13;2.53;;;0.80;;
16199;SDS011;8207;52.494;4.654;2023-08-06T09:32:53;2.45;;;0.85;;
16199;SDS011;8207;52.494;4.654;2023-08-06T09:35:23;3.38;;;0.77;;
16199;SDS011;8207;52.494;4.654;2023-08-06T09:37:51;3.42;;;0.93;;
16199;SDS011;8207;52.494;4.654;2023-08-06T09:42:48;1.98;;;0.73;;
16199;SDS011;8207;52.494;4.654;2023-08-06T09:45:13;4.90;;;0.85;;
16199;SDS011;8207;52.494;4.654;2023-08-06T09:47:40;3.85;;;0.88;;
16199;SDS011;8207;52.494;4.654;2023-08-06T09:50:06;2.80;;;0.90;;
16199;SDS011;8207;52.494;4.654;2023-08-06T09:52:33;2.38;;;0.70;;
16199;SDS011;8207;52.494;4.654;2023-08-06T09:54:58;4.82;;;0.90;;
16199;SDS011;8207;52.494;4.654;2023-08-06T09:57:24;3.83;;;0.93;;
16199;SDS011;8207;52.494;4.654;2023-08-06T09:59:49;3.35;;;0.75;;
16199;SDS011;8207;52.494;4.654;2023-08-06T10:02:19;3.45;;;0.70;;
16199;SDS011;8207;52.494;4.654;2023-08-06T10:05:07;3.08;;;0.88;;
16199;SDS011;8207;52.494;4.654;2023-08-06T10:07:33;3.35;;;0.82;;
16199;SDS011;8207;52.494;4.654;2023-08-06T10:09:58;2.00;;;0.80;;
16199;SDS011;8207;52.494;4.654;2023-08-06T10:12:24;3.63;;;0.70;;
16199;SDS011;8207;52.494;4.654;2023-08-06T10:14:51;4.07;;;0.93;;
16199;SDS011;8207;52.494;4.654;2023-08-06T10:17:19;2.17;;;0.50;;
16199;SDS011;8207;52.494;4.654;2023-08-06T10:19:45;1.48;;;0.50;;
16199;SDS011;8207;52.494;4.654;2023-08-06T10:22:15;3.15;;;0.65;;
16199;SDS011;8207;52.494;4.654;2023-08-06T10:24:45;2.05;;;0.60;;
16199;SDS011;8207;52.494;4.654;2023-08-06T10:27:10;1.83;;;0.77;;
16199;SDS011;8207;52.494;4.654;2023-08-06T10:29:36;2.38;;;0.70;;
16199;SDS011;8207;52.494;4.654;2023-08-06T10:32:01;4.13;;;0.90;;
16199;SDS011;8207;52.494;4.654;2023-08-06T10:39:36;3.08;;;0.80;;
16199;SDS011;8207;52.494;4.654;2023-08-06T10:42:13;3.08;;;0.88;;
16199;SDS011;8207;52.494;4.654;2023-08-06T10:47:30;5.18;;;1.00;;
16199;SDS011;8207;52.494;4.654;2023-08-06T10:50:03;3.25;;;0.85;;
16199;SDS011;8207;52.494;4.654;2023-08-06T10:52:28;1.92;;;0.90;;
16199;SDS011;8207;52.494;4.654;2023-08-06T10:54:54;3.03;;;1.02;;
16199;SDS011;8207;52.494;4.654;2023-08-06T10:57:21;3.25;;;1.10;;
16199;SDS011;8207;52.494;4.654;2023-08-06T10:59:46;3.40;;;1.00;;
16199;SDS011;8207;52.494;4.654;2023-08-06T11:02:11;2.53;;;0.82;;
16199;SDS011;8207;52.494;4.654;2023-08-06T11:04:37;5.32;;;0.93;;
16199;SDS011;8207;52.494;4.654;2023-08-06T11:07:03;3.50;;;0.90;;
16199;SDS011;8207;52.494;4.654;2023-08-06T11:09:28;4.10;;;0.93;;
16199;SDS011;8207;52.494;4.654;2023-08-06T11:11:53;3.05;;;0.90;;
16199;SDS011;8207;52.494;4.654;2023-08-06T11:14:18;3.67;;;1.00;;
16199;SDS011;8207;52.494;4.654;2023-08-06T11:16:44;4.03;;;1.10;;
16199;SDS011;8207;52.494;4.654;2023-08-06T11:19:09;4.38;;;1.23;;
16199;SDS011;8207;52.494;4.654;2023-08-06T11:21:34;6.65;;;1.27;;
16199;SDS011;8207;52.494;4.654;2023-08-06T11:24:00;3.08;;;1.17;;
16199;SDS011;8207;52.494;4.654;2023-08-06T11:26:26;3.95;;;1.20;;
16199;SDS011;8207;52.494;4.654;2023-08-06T11:28:53;5.53;;;1.10;;
16199;SDS011;8207;52.494;4.654;2023-08-06T11:31:22;3.78;;;1.05;;
16199;SDS011;8207;52.494;4.654;2023-08-06T11:33:49;3.53;;;0.93;;
16199;SDS011;8207;52.494;4.654;2023-08-06T11:36:14;2.13;;;1.00;;
16199;SDS011;8207;52.494;4.654;2023-08-06T11:38:40;3.88;;;0.93;;
16199;SDS011;8207;52.494;4.654;2023-08-06T11:41:06;1.92;;;0.90;;
16199;SDS011;8207;52.494;4.654;2023-08-06T11:43:31;2.20;;;0.80;;
16199;SDS011;8207;52.494;4.654;2023-08-06T11:45:58;1.92;;;0.80;;
16199;SDS011;8207;52.494;4.654;2023-08-06T11:48:25;2.92;;;0.88;;
16199;SDS011;8207;52.494;4.654;2023-08-06T11:50:53;3.95;;;1.13;;
16199;SDS011;8207;52.494;4.654;2023-08-06T11:53:19;1.98;;;0.98;;
16199;SDS011;8207;52.494;4.654;2023-08-06T11:55:44;3.42;;;1.08;;
16199;SDS011;8207;52.494;4.654;2023-08-06T11:58:09;4.18;;;1.10;;
16199;SDS011;8207;52.494;4.654;2023-08-06T12:00:36;3.00;;;1.02;;
16199;SDS011;8207;52.494;4.654;2023-08-06T12:03:02;3.17;;;1.00;;
16199;SDS011;8207;52.494;4.654;2023-08-06T12:05:30;3.22;;;1.27;;
16199;SDS011;8207;52.494;4.654;2023-08-06T12:07:56;2.50;;;1.25;;
16199;SDS011;8207;52.494;4.654;2023-08-06T12:10:23;3.38;;;1.27;;
16199;SDS011;8207;52.494;4.654;2023-08-06T12:12:48;3.03;;;1.10;;
16199;SDS011;8207;52.494;4.654;2023-08-06T12:15:17;2.55;;;0.98;;
16199;SDS011;8207;52.494;4.654;2023-08-06T12:17:43;3.28;;;0.80;;
16199;SDS011;8207;52.494;4.654;2023-08-06T12:20:08;1.95;;;0.93;;
16199;SDS011;8207;52.494;4.654;2023-08-06T12:22:34;1.67;;;0.70;;
16199;SDS011;8207;52.494;4.654;2023-08-06T12:25:04;3.10;;;0.90;;
16199;SDS011;8207;52.494;4.654;2023-08-06T12:27:32;1.23;;;0.60;;
16199;SDS011;8207;52.494;4.654;2023-08-06T12:29:58;4.53;;;0.88;;
16199;SDS011;8207;52.494;4.654;2023-08-06T12:32:23;3.72;;;0.73;;
16199;SDS011;8207;52.494;4.654;2023-08-06T12:34:48;2.42;;;0.80;;
16199;SDS011;8207;52.494;4.654;2023-08-06T12:37:13;2.85;;;0.80;;
16199;SDS011;8207;52.494;4.654;2023-08-06T12:39:39;3.35;;;0.90;;
16199;SDS011;8207;52.494;4.654;2023-08-06T12:42:05;2.97;;;0.80;;
16199;SDS011;8207;52.494;4.654;2023-08-06T12:44:30;2.55;;;0.82;;
16199;SDS011;8207;52.494;4.654;2023-08-06T12:46:55;1.80;;;0.90;;
16199;SDS011;8207;52.494;4.654;2023-08-06T12:49:21;3.92;;;0.80;;
16199;SDS011;8207;52.494;4.654;2023-08-06T12:51:46;2.00;;;1.00;;
16199;SDS011;8207;52.494;4.654;2023-08-06T12:54:12;4.30;;;1.13;;
16199;SDS011;8207;52.494;4.654;2023-08-06T12:56:37;3.08;;;1.05;;
16199;SDS011;8207;52.494;4.654;2023-08-06T12:59:03;3.35;;;1.00;;
16199;SDS011;8207;52.494;4.654;2023-08-06T13:01:28;2.47;;;0.98;;
16199;SDS011;8207;52.494;4.654;2023-08-06T13:03:54;3.20;;;1.00;;
16199;SDS011;8207;52.494;4.654;2023-08-06T13:06:19;2.92;;;0.98;;
16199;SDS011;8207;52.494;4.654;2023-08-06T13:08:44;2.37;;;0.87;;
16199;SDS011;8207;52.494;4.654;2023-08-06T13:11:09;3.20;;;1.10;;
16199;SDS011;8207;52.494;4.654;2023-08-06T13:13:35;3.45;;;1.00;;
16199;SDS011;8207;52.494;4.654;2023-08-06T13:16:00;4.70;;;0.97;;
16199;SDS011;8207;52.494;4.654;2023-08-06T13:18:25;4.13;;;0.88;;
16199;SDS011;8207;52.494;4.654;2023-08-06T13:20:52;2.17;;;0.65;;
16199;SDS011;8207;52.494;4.654;2023-08-06T13:23:18;3.50;;;0.70;;
16199;SDS011;8207;52.494;4.654;2023-08-06T13:25:43;1.60;;;0.60;;
16199;SDS011;8207;52.494;4.654;2023-08-06T13:28:08;2.88;;;0.50;;
16199;SDS011;8207;52.494;4.654;2023-08-06T13:30:33;3.03;;;0.70;;
16199;SDS011;8207;52.494;4.654;2023-08-06T13:33:00;2.45;;;0.70;;
16199;SDS011;8207;52.494;4.654;2023-08-06T13:35:26;7.68;;;0.93;;
16199;SDS011;8207;52.494;4.654;2023-08-06T13:37:51;7.68;;;1.10;;
16199;SDS011;8207;52.494;4.654;2023-08-06T13:40:17;8.25;;;1.17;;
16199;SDS011;8207;52.494;4.654;2023-08-06T13:42:42;6.30;;;0.90;;
16199;SDS011;8207;52.494;4.654;2023-08-06T13:45:07;7.03;;;0.90;;
16199;SDS011;8207;52.494;4.654;2023-08-06T13:47:33;8.95;;;1.00;;
16199;SDS011;8207;52.494;4.654;2023-08-06T13:49:58;7.38;;;1.08;;
16199;SDS011;8207;52.494;4.654;2023-08-06T13:52:25;8.15;;;0.93;;
16199;SDS011;8207;52.494;4.654;2023-08-06T13:54:50;7.47;;;1.00;;
16199;SDS011;8207;52.494;4.654;2023-08-06T13:57:15;5.25;;;0.52;;
16199;SDS011;8207;52.494;4.654;2023-08-06T13:59:42;5.60;;;0.45;;
16199;SDS011;8207;52.494;4.654;2023-08-06T14:02:08;6.78;;;0.73;;
16199;SDS011;8207;52.494;4.654;2023-08-06T14:04:33;4.77;;;0.93;;
16199;SDS011;8207;52.494;4.654;2023-08-06T14:07:01;5.50;;;0.60;;
16199;SDS011;8207;52.494;4.654;2023-08-06T14:09:34;6.78;;;0.70;;
16199;SDS011;8207;52.494;4.654;2023-08-06T14:12:00;4.65;;;0.70;;
16199;SDS011;8207;52.494;4.654;2023-08-06T14:14:25;5.70;;;0.75;;
16199;SDS011;8207;52.494;4.654;2023-08-06T14:16:53;6.05;;;0.60;;
16199;SDS011;8207;52.494;4.654;2023-08-06T14:19:19;7.22;;;1.10;;
16199;SDS011;8207;52.494;4.654;2023-08-06T14:21:44;5.63;;;0.80;;
16199;SDS011;8207;52.494;4.654;2023-08-06T14:24:11;7.45;;;0.90;;
16199;SDS011;8207;52.494;4.654;2023-08-06T14:26:36;8.25;;;1.05;;
16199;SDS011;8207;52.494;4.654;2023-08-06T14:29:02;8.88;;;1.10;;
16199;SDS011;8207;52.494;4.654;2023-08-06T14:31:27;8.65;;;0.80;;
16199;SDS011;8207;52.494;4.654;2023-08-06T14:33:52;8.48;;;1.08;;
16199;SDS011;8207;52.494;4.654;2023-08-06T14:36:18;6.63;;;0.83;;
16199;SDS011;8207;52.494;4.654;2023-08-06T14:38:43;8.40;;;0.90;;
16199;SDS011;8207;52.494;4.654;2023-08-06T14:41:09;8.05;;;1.00;;
16199;SDS011;8207;52.494;4.654;2023-08-06T14:43:34;6.75;;;1.17;;
16199;SDS011;8207;52.494;4.654;2023-08-06T14:45:59;5.57;;;0.70;;
16199;SDS011;8207;52.494;4.654;2023-08-06T14:48:24;6.47;;;0.77;;
16199;SDS011;8207;52.494;4.654;2023-08-06T14:50:53;9.83;;;1.10;;
16199;SDS011;8207;52.494;4.654;2023-08-06T14:53:18;6.22;;;0.75;;
16199;SDS011;8207;52.494;4.654;2023-08-06T14:55:44;7.10;;;0.88;;
16199;SDS011;8207;52.494;4.654;2023-08-06T14:58:09;7.20;;;0.88;;
16199;SDS011;8207;52.494;4.654;2023-08-06T15:00:34;6.68;;;0.82;;
16199;SDS011;8207;52.494;4.654;2023-08-06T15:02:59;7.80;;;0.80;;
16199;SDS011;8207;52.494;4.654;2023-08-06T15:05:25;6.00;;;0.80;;
16199;SDS011;8207;52.494;4.654;2023-08-06T15:07:50;5.10;;;0.85;;
16199;SDS011;8207;52.494;4.654;2023-08-06T15:10:17;6.15;;;0.70;;
16199;SDS011;8207;52.494;4.654;2023-08-06T15:12:43;7.13;;;0.90;;
16199;SDS011;8207;52.494;4.654;2023-08-06T15:15:09;6.22;;;0.90;;
16199;SDS011;8207;52.494;4.654;2023-08-06T15:17:34;8.68;;;1.35;;
16199;SDS011;8207;52.494;4.654;2023-08-06T15:19:59;12.95;;;1.50;;
16199;SDS011;8207;52.494;4.654;2023-08-06T15:22:25;6.57;;;1.02;;
16199;SDS011;8207;52.494;4.654;2023-08-06T15:24:51;6.95;;;0.98;;
16199;SDS011;8207;52.494;4.654;2023-08-06T15:27:16;5.82;;;0.80;;
16199;SDS011;8207;52.494;4.654;2023-08-06T15:29:42;9.65;;;1.20;;
16199;SDS011;8207;52.494;4.654;2023-08-06T15:32:08;12.45;;;1.10;;
16199;SDS011;8207;52.494;4.654;2023-08-06T15:34:34;10.88;;;1.35;;
16199;SDS011;8207;52.494;4.654;2023-08-06T15:36:59;7.10;;;1.10;;
16199;SDS011;8207;52.494;4.654;2023-08-06T15:39:24;6.38;;;1.33;;
16199;SDS011;8207;52.494;4.654;2023-08-06T15:41:49;5.50;;;1.02;;
16199;SDS011;8207;52.494;4.654;2023-08-06T15:44:14;5.05;;;1.00;;
16199;SDS011;8207;52.494;4.654;2023-08-06T15:46:40;11.03;;;1.40;;
16199;SDS011;8207;52.494;4.654;2023-08-06T15:49:05;7.60;;;1.45;;
16199;SDS011;8207;52.494;4.654;2023-08-06T15:51:31;6.78;;;0.80;;
16199;SDS011;8207;52.494;4.654;2023-08-06T15:53:56;5.65;;;0.95;;
16199;SDS011;8207;52.494;4.654;2023-08-06T15:56:21;11.23;;;1.40;;
16199;SDS011;8207;52.494;4.654;2023-08-06T15:58:46;9.07;;;1.25;;
16199;SDS011;8207;52.494;4.654;2023-08-06T16:01:12;6.18;;;0.88;;
16199;SDS011;8207;52.494;4.654;2023-08-06T16:03:39;6.60;;;0.93;;